createdAt,value
2023-05-02T00:00:00.888Z,1017
2023-05-02T00:02:01.053Z,1017
2023-05-02T00:04:00.673Z,1017
2023-05-02T00:06:00.639Z,1017
2023-05-02T00:08:01.015Z,1017
2023-05-02T00:10:00.862Z,1017
2023-05-02T00:12:00.733Z,1017
2023-05-02T00:14:00.647Z,1017
2023-05-02T00:16:01.102Z,1017
2023-05-02T00:18:01.241Z,1017
2023-05-02T00:20:01.124Z,1017
2023-05-02T00:22:00.667Z,1017
2023-05-02T00:24:00.621Z,1017
2023-05-02T00:26:01.074Z,1017
2023-05-02T00:28:00.549Z,1017
2023-05-02T00:30:01.256Z,1017
2023-05-02T00:32:01.481Z,1017
2023-05-02T00:36:00.621Z,1017
2023-05-02T00:38:01.124Z,1017
2023-05-02T00:42:00.687Z,1017
2023-05-02T00:44:00.514Z,1017
2023-05-02T00:46:00.625Z,1017
2023-05-02T00:48:00.769Z,1017
2023-05-02T00:50:00.638Z,1017
2023-05-02T00:52:00.562Z,1017
2023-05-02T00:54:00.632Z,1017
2023-05-02T00:56:00.579Z,1017
2023-05-02T00:58:01.194Z,1017
2023-05-02T01:02:01.328Z,1017
2023-05-02T01:04:00.694Z,1017
2023-05-02T01:06:00.569Z,1017
2023-05-02T01:08:00.538Z,1017
2023-05-02T01:10:01.265Z,1017
2023-05-02T01:12:01.179Z,1017
2023-05-02T01:14:00.969Z,1017
2023-05-02T01:16:00.512Z,1017
2023-05-02T01:18:00.675Z,1017
2023-05-02T01:20:00.873Z,1017
2023-05-02T01:22:00.970Z,1017
2023-05-02T01:24:00.645Z,1017
2023-05-02T01:26:00.494Z,1017
2023-05-02T01:28:00.573Z,1017
2023-05-02T01:30:01.185Z,1017
2023-05-02T01:32:00.724Z,1018
2023-05-02T01:34:01.053Z,1018
2023-05-02T01:36:00.985Z,1018
2023-05-02T01:38:00.566Z,1018
2023-05-02T01:40:00.997Z,1018
2023-05-02T01:42:00.622Z,1018
2023-05-02T01:44:00.722Z,1018
2023-05-02T01:46:00.750Z,1018
2023-05-02T01:48:00.539Z,1018
2023-05-02T01:52:01.191Z,1018
2023-05-02T01:54:00.597Z,1018
2023-05-02T01:56:00.584Z,1018
2023-05-02T01:58:00.540Z,1018
2023-05-02T02:00:01.088Z,1018
2023-05-02T02:02:00.564Z,1018
2023-05-02T02:04:01.074Z,1018
2023-05-02T02:08:01.030Z,1018
2023-05-02T02:10:01.316Z,1018
2023-05-02T02:12:00.565Z,1018
2023-05-02T02:14:00.846Z,1018
2023-05-02T02:18:01.177Z,1018
2023-05-02T02:20:01.157Z,1018
2023-05-02T02:22:00.559Z,1018
2023-05-02T02:24:00.584Z,1018
2023-05-02T02:26:01.286Z,1018
2023-05-02T02:28:00.587Z,1018
2023-05-02T02:30:00.760Z,1018
2023-05-02T02:32:00.644Z,1018
2023-05-02T02:34:00.539Z,1018
2023-05-02T02:36:00.540Z,1018
2023-05-02T02:38:00.550Z,1018
2023-05-02T02:40:01.244Z,1018
2023-05-02T02:42:00.581Z,1018
2023-05-02T02:44:00.672Z,1018
2023-05-02T02:46:00.605Z,1018
2023-05-02T02:50:00.907Z,1018
2023-05-02T02:52:00.719Z,1018
2023-05-02T02:54:00.623Z,1018
2023-05-02T02:56:00.631Z,1018
2023-05-02T02:58:00.547Z,1018
2023-05-02T03:00:01.642Z,1018
2023-05-02T03:02:00.998Z,1018
2023-05-02T03:04:01.125Z,1018
2023-05-02T03:06:00.545Z,1018
2023-05-02T03:08:01.213Z,1018
2023-05-02T03:12:00.652Z,1018
2023-05-02T03:14:00.596Z,1018
2023-05-02T03:16:00.733Z,1018
2023-05-02T03:18:01.044Z,1018
2023-05-02T03:20:00.984Z,1018
2023-05-02T03:22:00.984Z,1018
2023-05-02T03:24:01.108Z,1018
2023-05-02T03:26:01.472Z,1018
2023-05-02T03:28:00.592Z,1018
2023-05-02T03:30:00.889Z,1018
2023-05-02T03:32:01.158Z,1018
2023-05-02T03:34:01.495Z,1018
2023-05-02T03:36:00.653Z,1018
2023-05-02T03:38:00.669Z,1018
2023-05-02T03:42:00.556Z,1018
2023-05-02T03:50:01.268Z,1018
2023-05-02T03:52:00.612Z,1018
2023-05-02T03:54:01.033Z,1018
2023-05-02T03:56:00.612Z,1018
2023-05-02T03:58:00.593Z,1018
2023-05-02T04:02:01.146Z,1018
2023-05-02T04:04:00.997Z,1018
2023-05-02T04:06:00.700Z,1018
2023-05-02T04:08:00.576Z,1018
2023-05-02T04:10:01.076Z,1019
2023-05-02T04:12:01.164Z,1019
2023-05-02T04:14:00.988Z,1019
2023-05-02T04:16:00.730Z,1019
2023-05-02T04:18:01.337Z,1019
2023-05-02T04:22:00.566Z,1019
2023-05-02T04:24:01.010Z,1019
2023-05-02T04:26:01.200Z,1019
2023-05-02T04:28:01.353Z,1019
2023-05-02T04:30:00.874Z,1019
2023-05-02T04:32:00.568Z,1019
2023-05-02T04:34:00.590Z,1019
2023-05-02T04:38:00.580Z,1019
2023-05-02T04:40:00.849Z,1019
2023-05-02T04:44:00.786Z,1019
2023-05-02T04:46:00.587Z,1019
2023-05-02T04:50:01.333Z,1019
2023-05-02T04:52:00.558Z,1019
2023-05-02T04:54:00.623Z,1019
2023-05-02T04:56:00.553Z,1019
2023-05-02T05:00:01.021Z,1019
2023-05-02T05:04:00.948Z,1019
2023-05-02T05:06:00.759Z,1019
2023-05-02T05:08:00.714Z,1019
2023-05-02T05:10:00.964Z,1019
2023-05-02T05:12:01.484Z,1019
2023-05-02T05:14:00.559Z,1019
2023-05-02T05:16:00.701Z,1019
2023-05-02T05:22:01.094Z,1019
2023-05-02T05:26:00.681Z,1019
2023-05-02T05:30:00.803Z,1019
2023-05-02T05:32:00.714Z,1019
2023-05-02T05:36:00.651Z,1019
2023-05-02T05:38:01.035Z,1019
2023-05-02T05:40:01.511Z,1019
2023-05-02T05:42:00.932Z,1019
2023-05-02T05:44:00.663Z,1020
2023-05-02T05:46:00.598Z,1020
2023-05-02T05:48:00.639Z,1020
2023-05-02T05:50:01.223Z,1020
2023-05-02T05:52:00.623Z,1019
2023-05-02T05:54:00.620Z,1019
2023-05-02T05:58:00.610Z,1020
2023-05-02T06:00:01.334Z,1020
2023-05-02T06:02:00.659Z,1020
2023-05-02T06:04:00.807Z,1020
2023-05-02T06:06:00.651Z,1020
2023-05-02T06:08:01.135Z,1020
2023-05-02T06:10:00.860Z,1020
2023-05-02T06:12:00.603Z,1020
2023-05-02T06:14:00.596Z,1020
2023-05-02T06:16:01.276Z,1020
2023-05-02T06:18:01.016Z,1020
2023-05-02T06:20:01.403Z,1020
2023-05-02T06:22:01.320Z,1020
2023-05-02T06:24:00.631Z,1020
2023-05-02T06:26:00.725Z,1020
2023-05-02T06:28:01.137Z,1020
2023-05-02T06:30:00.908Z,1020
2023-05-02T06:32:00.764Z,1020
2023-05-02T06:34:00.660Z,1020
2023-05-02T06:36:02.101Z,1020
2023-05-02T06:38:00.656Z,1020
2023-05-02T06:40:01.429Z,1020
2023-05-02T06:42:00.635Z,1020
2023-05-02T06:44:00.603Z,1020
2023-05-02T06:46:00.656Z,1020
2023-05-02T06:48:00.691Z,1020
2023-05-02T06:52:00.651Z,1020
2023-05-02T06:54:00.691Z,1020
2023-05-02T06:58:00.655Z,1020
2023-05-02T07:00:01.049Z,1020
2023-05-02T07:02:02.399Z,1020
2023-05-02T07:04:00.769Z,1020
2023-05-02T07:06:00.683Z,1020
2023-05-02T07:08:01.697Z,1020
2023-05-02T07:10:02.065Z,1020
2023-05-02T07:12:01.001Z,1020
2023-05-02T07:16:01.612Z,1020
2023-05-02T07:18:01.093Z,1020
2023-05-02T07:20:01.320Z,1020
2023-05-02T07:22:01.006Z,1020
2023-05-02T07:24:01.744Z,1020
2023-05-02T07:26:01.082Z,1020
2023-05-02T07:28:00.731Z,1020
2023-05-02T07:30:02.409Z,1020
2023-05-02T07:32:02.131Z,1020
2023-05-02T07:34:01.693Z,1020
2023-05-02T07:36:01.096Z,1020
2023-05-02T07:38:01.891Z,1020
2023-05-02T07:40:01.393Z,1020
2023-05-02T07:42:01.601Z,1020
2023-05-02T07:44:01.014Z,1020
2023-05-02T07:46:01.450Z,1021
2023-05-02T07:48:01.071Z,1021
2023-05-02T07:50:02.193Z,1021
2023-05-02T07:52:01.375Z,1021
2023-05-02T07:54:01.814Z,1021
2023-05-02T07:58:01.264Z,1021
2023-05-02T08:00:01.431Z,1021
2023-05-02T08:02:01.383Z,1021
2023-05-02T08:04:01.678Z,1021
2023-05-02T08:06:01.214Z,1021
2023-05-02T08:10:01.801Z,1021
2023-05-02T08:12:01.759Z,1021
2023-05-02T08:14:01.132Z,1021
2023-05-02T08:16:01.487Z,1021
2023-05-02T08:18:01.045Z,1021
2023-05-02T08:22:01.130Z,1021
2023-05-02T08:24:01.083Z,1021
2023-05-02T08:26:01.039Z,1021
2023-05-02T08:28:01.240Z,1021
2023-05-02T08:30:01.439Z,1021
2023-05-02T08:32:00.820Z,1021
2023-05-02T08:34:01.563Z,1021
2023-05-02T08:36:01.009Z,1021
2023-05-02T08:40:02.004Z,1021
2023-05-02T08:42:01.037Z,1021
2023-05-02T08:44:01.078Z,1021
2023-05-02T08:46:01.270Z,1021
2023-05-02T08:48:00.987Z,1021
2023-05-02T08:50:01.744Z,1021
2023-05-02T08:52:01.095Z,1021
2023-05-02T08:54:01.555Z,1021
2023-05-02T08:56:01.025Z,1021
2023-05-02T08:58:01.036Z,1021
2023-05-02T09:00:01.246Z,1021
2023-05-02T09:02:01.037Z,1021
2023-05-02T09:04:01.135Z,1021
2023-05-02T09:06:01.082Z,1021
2023-05-02T09:08:01.136Z,1021
2023-05-02T09:10:01.074Z,1021
2023-05-02T09:12:01.331Z,1021
2023-05-02T09:14:01.506Z,1021
2023-05-02T09:16:03.369Z,1021
2023-05-02T09:18:02.606Z,1021
2023-05-02T09:20:02.080Z,1021
2023-05-02T09:22:01.742Z,1021
2023-05-02T09:24:02.340Z,1021
2023-05-02T09:26:02.622Z,1021
2023-05-02T09:28:03.090Z,1021
2023-05-02T09:30:01.290Z,1021
2023-05-02T09:32:02.411Z,1021
2023-05-02T09:34:01.338Z,1021
2023-05-02T09:36:02.567Z,1021
2023-05-02T09:38:01.393Z,1021
2023-05-02T09:40:00.983Z,1021
2023-05-02T09:42:02.390Z,1021
2023-05-02T09:44:02.252Z,1021
2023-05-02T09:46:01.429Z,1021
2023-05-02T09:48:02.946Z,1021
2023-05-02T09:50:02.165Z,1021
2023-05-02T09:52:01.876Z,1021
2023-05-02T09:54:02.455Z,1022
2023-05-02T09:56:01.625Z,1021
2023-05-02T09:58:02.655Z,1021
2023-05-02T10:00:02.190Z,1021
2023-05-02T10:02:03.373Z,1022
2023-05-02T10:04:02.871Z,1022
2023-05-02T10:06:01.897Z,1022
2023-05-02T10:08:03.131Z,1022
2023-05-02T10:10:02.724Z,1022
2023-05-02T10:12:01.829Z,1021
2023-05-02T10:14:02.390Z,1021
2023-05-02T10:16:01.586Z,1021
2023-05-02T10:20:01.702Z,1021
2023-05-02T10:22:03.393Z,1021
2023-05-02T10:24:01.350Z,1021
2023-05-02T10:26:02.570Z,1021
2023-05-02T10:30:02.699Z,1021
2023-05-02T10:32:02.875Z,1021
2023-05-02T10:34:01.376Z,1021
2023-05-02T10:36:02.783Z,1021
2023-05-02T10:38:02.102Z,1021
2023-05-02T10:40:02.235Z,1021
2023-05-02T10:42:02.605Z,1021
2023-05-02T10:44:01.679Z,1021
2023-05-02T10:46:02.837Z,1021
2023-05-02T10:48:02.198Z,1021
2023-05-02T10:50:02.570Z,1021
2023-05-02T10:52:02.145Z,1021
2023-05-02T10:54:02.743Z,1021
2023-05-02T10:56:02.663Z,1021
2023-05-02T11:00:02.072Z,1021
2023-05-02T11:02:03.558Z,1021
2023-05-02T11:04:02.204Z,1021
2023-05-02T11:06:01.323Z,1021
2023-05-02T11:08:02.707Z,1021
2023-05-02T11:10:02.746Z,1021
2023-05-02T11:12:02.186Z,1021
2023-05-02T11:14:01.433Z,1021
2023-05-02T11:16:02.770Z,1021
2023-05-02T11:18:01.456Z,1021
2023-05-02T11:20:01.413Z,1021
2023-05-02T11:22:02.304Z,1021
2023-05-02T11:24:02.819Z,1021
2023-05-02T11:26:01.897Z,1021
2023-05-02T11:28:01.298Z,1021
2023-05-02T11:30:01.826Z,1021
2023-05-02T11:32:01.754Z,1021
2023-05-02T11:34:01.870Z,1021
2023-05-02T11:36:02.840Z,1021
2023-05-02T11:38:01.790Z,1021
2023-05-02T11:40:02.575Z,1021
2023-05-02T11:42:03.132Z,1021
2023-05-02T11:44:01.341Z,1021
2023-05-02T11:46:02.907Z,1021
2023-05-02T11:48:02.787Z,1021
2023-05-02T11:50:02.298Z,1021
2023-05-02T11:52:02.462Z,1021
2023-05-02T11:54:02.949Z,1021
2023-05-02T11:56:02.724Z,1021
2023-05-02T11:58:02.968Z,1021
2023-05-02T12:00:02.819Z,1021
2023-05-02T12:02:02.295Z,1021
2023-05-02T12:04:02.745Z,1021
2023-05-02T12:06:02.705Z,1021
2023-05-02T12:08:01.343Z,1021
2023-05-02T12:10:02.538Z,1021
2023-05-02T12:12:02.731Z,1021
2023-05-02T12:14:01.820Z,1021
2023-05-02T12:16:02.300Z,1021
2023-05-02T12:18:03.342Z,1021
2023-05-02T12:20:02.957Z,1021
2023-05-02T12:22:01.412Z,1021
2023-05-02T12:24:01.334Z,1021
2023-05-02T12:26:02.481Z,1021
2023-05-02T12:28:02.766Z,1021
2023-05-02T12:30:03.021Z,1021
2023-05-02T12:32:03.498Z,1021
2023-05-02T12:34:01.859Z,1021
2023-05-02T12:36:02.819Z,1021
2023-05-02T12:38:02.792Z,1021
2023-05-02T12:40:02.032Z,1021
2023-05-02T12:42:03.397Z,1021
2023-05-02T12:44:02.124Z,1021
2023-05-02T12:46:01.471Z,1021
2023-05-02T12:48:02.047Z,1021
2023-05-02T12:50:03.056Z,1021
2023-05-02T12:52:02.720Z,1021
2023-05-02T12:54:02.700Z,1021
2023-05-02T12:56:03.085Z,1021
2023-05-02T12:58:01.806Z,1021
2023-05-02T13:00:02.645Z,1021
2023-05-02T13:02:02.627Z,1021
2023-05-02T13:04:02.666Z,1021
2023-05-02T13:06:01.912Z,1021
2023-05-02T13:08:02.708Z,1021
2023-05-02T13:10:02.196Z,1021
2023-05-02T13:12:01.335Z,1021
2023-05-02T13:14:02.266Z,1021
2023-05-02T13:16:02.230Z,1021
2023-05-02T13:18:02.967Z,1021
2023-05-02T13:20:02.716Z,1021
2023-05-02T13:22:02.739Z,1021
2023-05-02T13:26:01.851Z,1021
2023-05-02T13:28:02.346Z,1021
2023-05-02T13:30:04.812Z,1021
2023-05-02T13:32:02.579Z,1021
2023-05-02T13:36:01.351Z,1021
2023-05-02T13:38:02.775Z,1021
2023-05-02T13:40:02.538Z,1021
2023-05-02T13:42:03.710Z,1021
2023-05-02T13:44:02.498Z,1021
2023-05-02T13:46:02.628Z,1021
2023-05-02T13:48:02.686Z,1021
2023-05-02T13:52:01.866Z,1021
2023-05-02T13:56:02.654Z,1021
2023-05-02T13:58:01.976Z,1021
2023-05-02T14:00:02.288Z,1021
2023-05-02T14:02:01.395Z,1021
2023-05-02T14:04:02.858Z,1021
2023-05-02T14:06:03.335Z,1021
2023-05-02T14:08:02.748Z,1021
2023-05-02T14:10:03.021Z,1021
2023-05-02T14:12:02.274Z,1021
2023-05-02T14:14:02.358Z,1021
2023-05-02T14:16:01.901Z,1021
2023-05-02T14:18:02.786Z,1021
2023-05-02T14:20:03.603Z,1021
2023-05-02T14:22:02.663Z,1021
2023-05-02T14:24:02.732Z,1021
2023-05-02T14:26:01.850Z,1021
2023-05-02T14:28:02.976Z,1021
2023-05-02T14:30:01.639Z,1021
2023-05-02T14:32:02.624Z,1021
2023-05-02T14:34:01.835Z,1021
2023-05-02T14:36:02.749Z,1021
2023-05-02T14:38:02.554Z,1021
2023-05-02T14:40:02.921Z,1021
2023-05-02T14:42:02.311Z,1021
2023-05-02T14:44:02.609Z,1021
2023-05-02T14:46:02.632Z,1021
2023-05-02T14:48:01.319Z,1021
2023-05-02T14:50:02.228Z,1021
2023-05-02T14:52:02.297Z,1021
2023-05-02T14:54:03.145Z,1021
2023-05-02T14:56:02.884Z,1021
2023-05-02T14:58:02.777Z,1022
2023-05-02T15:00:03.475Z,1022
2023-05-02T15:02:02.278Z,1021
2023-05-02T15:04:06.937Z,1021
2023-05-02T15:06:02.570Z,1021
2023-05-02T15:08:02.647Z,1021
2023-05-02T15:10:02.908Z,1022
2023-05-02T15:12:02.344Z,1022
2023-05-02T15:14:03.088Z,1022
2023-05-02T15:16:02.231Z,1022
2023-05-02T15:18:02.816Z,1022
2023-05-02T15:20:03.059Z,1021
2023-05-02T15:22:02.631Z,1022
2023-05-02T15:24:02.320Z,1021
2023-05-02T15:26:02.620Z,1022
2023-05-02T15:28:02.310Z,1022
2023-05-02T15:30:02.871Z,1022
2023-05-02T15:32:02.927Z,1022
2023-05-02T15:34:01.538Z,1022
2023-05-02T15:36:02.094Z,1022
2023-05-02T15:38:02.711Z,1022
2023-05-02T15:40:04.476Z,1022
2023-05-02T15:42:02.463Z,1022
2023-05-02T15:44:01.630Z,1022
2023-05-02T15:46:02.722Z,1022
2023-05-02T15:48:02.695Z,1022
2023-05-02T15:50:01.587Z,1022
2023-05-02T15:54:02.306Z,1022
2023-05-02T15:56:02.795Z,1022
2023-05-02T15:58:02.718Z,1022
2023-05-02T16:00:02.757Z,1022
2023-05-02T16:02:02.936Z,1022
2023-05-02T16:04:01.822Z,1022
2023-05-02T16:06:01.885Z,1022
2023-05-02T16:08:02.306Z,1022
2023-05-02T16:10:02.908Z,1022
2023-05-02T16:12:02.699Z,1022
2023-05-02T16:14:02.672Z,1022
2023-05-02T16:16:01.439Z,1022
2023-05-02T16:18:02.331Z,1022
2023-05-02T16:20:02.990Z,1022
2023-05-02T16:22:02.784Z,1022
2023-05-02T16:24:03.602Z,1022
2023-05-02T16:26:03.101Z,1022
2023-05-02T16:28:01.889Z,1022
2023-05-02T16:30:02.212Z,1022
2023-05-02T16:32:02.053Z,1022
2023-05-02T16:36:03.257Z,1022
2023-05-02T16:38:01.973Z,1022
2023-05-02T16:40:02.981Z,1022
2023-05-02T16:42:02.291Z,1022
2023-05-02T16:44:01.923Z,1022
2023-05-02T16:46:03.162Z,1022
2023-05-02T16:48:02.968Z,1022
2023-05-02T16:50:02.943Z,1022
2023-05-02T16:52:01.902Z,1022
2023-05-02T16:54:01.570Z,1022
2023-05-02T16:56:01.343Z,1022
2023-05-02T16:58:01.379Z,1022
2023-05-02T17:00:03.284Z,1022
2023-05-02T17:02:01.999Z,1022
2023-05-02T17:04:02.974Z,1022
2023-05-02T17:06:02.381Z,1022
2023-05-02T17:08:02.359Z,1022
2023-05-02T17:10:02.420Z,1022
2023-05-02T17:12:01.544Z,1022
2023-05-02T17:14:02.776Z,1022
2023-05-02T17:16:03.211Z,1022
2023-05-02T17:18:02.291Z,1022
2023-05-02T17:20:02.648Z,1022
2023-05-02T17:22:03.717Z,1022
2023-05-02T17:24:02.217Z,1022
2023-05-02T17:26:01.399Z,1023
2023-05-02T17:28:02.336Z,1023
2023-05-02T17:30:01.498Z,1023
2023-05-02T17:32:02.341Z,1023
2023-05-02T17:34:02.825Z,1023
2023-05-02T17:36:03.115Z,1023
2023-05-02T17:38:02.324Z,1023
2023-05-02T17:40:02.113Z,1023
2023-05-02T17:42:01.464Z,1023
2023-05-02T17:44:01.403Z,1023
2023-05-02T17:46:03.056Z,1023
2023-05-02T17:48:03.326Z,1023
2023-05-02T17:50:03.239Z,1023
2023-05-02T17:52:02.428Z,1023
2023-05-02T17:54:03.149Z,1023
2023-05-02T17:56:02.700Z,1023
2023-05-02T17:58:02.834Z,1023
2023-05-02T18:00:01.747Z,1023
2023-05-02T18:02:01.998Z,1023
2023-05-02T18:04:01.519Z,1023
2023-05-02T18:06:02.378Z,1023
2023-05-02T18:08:01.911Z,1023
2023-05-02T18:10:02.482Z,1023
2023-05-02T18:12:03.316Z,1023
2023-05-02T18:14:02.416Z,1023
2023-05-02T18:16:01.560Z,1023
2023-05-02T18:18:03.287Z,1023
2023-05-02T18:20:01.686Z,1023
2023-05-02T18:22:01.069Z,1023
2023-05-02T18:24:02.345Z,1023
2023-05-02T18:26:02.986Z,1023
2023-05-02T18:28:02.715Z,1023
2023-05-02T18:30:01.529Z,1023
2023-05-02T18:32:03.379Z,1023
2023-05-02T18:34:02.734Z,1023
2023-05-02T18:36:02.999Z,1023
2023-05-02T18:38:02.317Z,1023
2023-05-02T18:40:01.649Z,1023
2023-05-02T18:42:01.076Z,1023
2023-05-02T18:44:02.767Z,1023
2023-05-02T18:46:02.384Z,1023
2023-05-02T18:50:03.456Z,1023
2023-05-02T18:52:03.303Z,1023
2023-05-02T18:54:03.261Z,1023
2023-05-02T18:56:01.773Z,1023
2023-05-02T18:58:01.496Z,1023
2023-05-02T19:00:02.844Z,1023
2023-05-02T19:02:02.342Z,1024
2023-05-02T19:04:02.057Z,1024
2023-05-02T19:06:01.570Z,1024
2023-05-02T19:08:02.903Z,1024
2023-05-02T19:10:02.849Z,1024
2023-05-02T19:14:02.634Z,1024
2023-05-02T19:16:02.677Z,1024
2023-05-02T19:18:02.725Z,1024
2023-05-02T19:20:03.130Z,1024
2023-05-02T19:22:02.334Z,1024
2023-05-02T19:24:03.460Z,1024
2023-05-02T19:26:01.835Z,1024
2023-05-02T19:28:03.132Z,1024
2023-05-02T19:30:02.830Z,1024
2023-05-02T19:32:03.206Z,1024
2023-05-02T19:34:03.533Z,1024
2023-05-02T19:36:03.087Z,1024
2023-05-02T19:38:02.806Z,1024
2023-05-02T19:40:01.532Z,1024
2023-05-02T19:42:02.799Z,1024
2023-05-02T19:44:02.691Z,1024
2023-05-02T19:46:03.563Z,1024
2023-05-02T19:48:03.063Z,1024
2023-05-02T19:50:02.230Z,1024
2023-05-02T19:52:02.780Z,1024
2023-05-02T19:54:02.961Z,1024
2023-05-02T19:56:02.781Z,1024
2023-05-02T19:58:02.172Z,1024
2023-05-02T20:00:03.167Z,1024
2023-05-02T20:02:03.193Z,1024
2023-05-02T20:04:02.563Z,1024
2023-05-02T20:06:03.136Z,1024
2023-05-02T20:08:02.754Z,1024
2023-05-02T20:10:03.692Z,1024
2023-05-02T20:12:02.796Z,1024
2023-05-02T20:14:01.978Z,1024
2023-05-02T20:16:02.394Z,1024
2023-05-02T20:18:01.878Z,1024
2023-05-02T20:20:02.513Z,1024
2023-05-02T20:22:01.941Z,1024
2023-05-02T20:24:01.458Z,1024
2023-05-02T20:26:01.882Z,1024
2023-05-02T20:28:02.357Z,1024
2023-05-02T20:30:03.445Z,1024
2023-05-02T20:32:02.504Z,1024
2023-05-02T20:34:03.203Z,1024
2023-05-02T20:36:01.539Z,1024
2023-05-02T20:38:02.436Z,1024
2023-05-02T20:40:03.523Z,1024
2023-05-02T20:42:01.491Z,1024
2023-05-02T20:44:01.408Z,1024
2023-05-02T20:46:01.458Z,1024
2023-05-02T20:48:03.407Z,1024
2023-05-02T20:50:01.896Z,1024
2023-05-02T20:52:01.969Z,1024
2023-05-02T20:54:02.466Z,1024
2023-05-02T20:56:03.570Z,1024
2023-05-02T20:58:03.042Z,1024
2023-05-02T21:00:03.338Z,1024
2023-05-02T21:02:03.240Z,1024
2023-05-02T21:04:01.548Z,1024
2023-05-02T21:06:03.222Z,1024
2023-05-02T21:08:01.957Z,1024
2023-05-02T21:10:02.910Z,1024
2023-05-02T21:12:03.154Z,1024
2023-05-02T21:16:03.163Z,1024
2023-05-02T21:18:02.874Z,1024
2023-05-02T21:20:01.608Z,1024
2023-05-02T21:22:02.651Z,1024
2023-05-02T21:24:02.143Z,1024
2023-05-02T21:26:02.913Z,1024
2023-05-02T21:28:02.813Z,1024
2023-05-02T21:30:03.002Z,1024
2023-05-02T21:32:02.788Z,1024
2023-05-02T21:34:02.253Z,1024
2023-05-02T21:36:01.478Z,1024
2023-05-02T21:38:02.333Z,1024
2023-05-02T21:40:03.385Z,1024
2023-05-02T21:42:03.165Z,1024
2023-05-02T21:44:03.268Z,1024
2023-05-02T21:48:02.309Z,1024
2023-05-02T21:50:02.602Z,1024
2023-05-02T21:52:01.490Z,1024
2023-05-02T21:54:02.839Z,1024
2023-05-02T21:56:03.385Z,1024
2023-05-02T21:58:01.425Z,1024
2023-05-02T22:00:02.983Z,1024
2023-05-02T22:04:02.037Z,1024
2023-05-02T22:08:02.500Z,1024
2023-05-02T22:10:03.211Z,1024
2023-05-02T22:12:02.755Z,1024
2023-05-02T22:14:01.940Z,1024
2023-05-02T22:16:03.226Z,1024
2023-05-02T22:18:01.575Z,1024
2023-05-02T22:20:01.903Z,1024
2023-05-02T22:22:02.308Z,1024
2023-05-02T22:24:03.272Z,1024
2023-05-02T22:26:02.825Z,1024
2023-05-02T22:28:01.904Z,1024
2023-05-02T22:30:03.201Z,1024
2023-05-02T22:32:01.493Z,1024
2023-05-02T22:34:01.465Z,1024
2023-05-02T22:36:01.942Z,1024
2023-05-02T22:38:02.214Z,1024
2023-05-02T22:40:02.172Z,1024
2023-05-02T22:42:03.408Z,1024
2023-05-02T22:44:02.770Z,1024
2023-05-02T22:46:02.870Z,1024
2023-05-02T22:48:03.272Z,1024
2023-05-02T22:50:02.738Z,1024
2023-05-02T22:52:02.870Z,1024
2023-05-02T22:54:03.036Z,1024
2023-05-02T22:56:02.871Z,1024
2023-05-02T22:58:01.485Z,1024
2023-05-02T23:00:02.600Z,1024
2023-05-02T23:02:03.294Z,1024
2023-05-02T23:04:03.129Z,1024
2023-05-02T23:06:02.843Z,1024
2023-05-02T23:08:03.376Z,1024
2023-05-02T23:10:03.042Z,1024
2023-05-02T23:12:03.582Z,1024
2023-05-02T23:14:01.477Z,1024
2023-05-02T23:16:03.094Z,1024
2023-05-02T23:18:02.824Z,1024
2023-05-02T23:20:02.459Z,1024
2023-05-02T23:22:01.488Z,1024
2023-05-02T23:24:02.248Z,1024
2023-05-02T23:28:02.946Z,1024
2023-05-02T23:30:03.426Z,1024
2023-05-02T23:32:02.945Z,1024
2023-05-02T23:34:02.979Z,1024
2023-05-02T23:36:02.714Z,1024
2023-05-02T23:40:03.141Z,1024
2023-05-02T23:42:03.631Z,1024
2023-05-02T23:44:01.556Z,1024
2023-05-02T23:46:02.370Z,1024
2023-05-02T23:48:03.256Z,1024
2023-05-02T23:50:03.346Z,1024
2023-05-02T23:52:01.404Z,1024
2023-05-02T23:54:02.941Z,1024
2023-05-02T23:56:03.196Z,1024
2023-05-02T23:58:01.558Z,1024
